Decoded Metar for FMEP (ST.-PIERRE in REUNION ISLAND) (IATA:ZSE) | Meteo·Mobile Aviation Weather
aviador You're here:

FMEP Decoded Metar

ST.-PIERRE in REUNION ISLAND
Report Time2019-10-19 22:00:00
UTC Time2019-10-19 22:35:17
Flight Rules vfr VFR
Wind040° at 08 kt
W.Decomp.*RWY 15: 8 kt LCW
Visibility9999 m
Phenomena:N/A
Clouds:N/A
Expected CloudBase > 4,000 ft AGL from Temp-Dew spread
CeilingNone
Temp21°C (ISA +6)
Dew Point11°C (53% RH)
AAT18.5°C
QNH1018 hPa
Density Alt925 ft
Elevation174 ft
Report Wrong Elevation
Raw Report
FMEP 192200Z AUTO 04008KT CAVOK 21/11 Q1018=

Extra information for FMEP:More info

Metar Taf Metar & Taf Last 4 Metars F.Rules Stats Wind Profile Meteogram Temp Stats Airport Information Weather charts Add Link Nearby VenuesMetar ALERT Operation Metar Decoded Social comments